createdAt,value
2022-08-29T00:02:13.161Z,18.79
2022-08-29T00:04:40.880Z,18.86
2022-08-29T00:07:10.339Z,18.92
2022-08-29T00:09:37.951Z,18.96
2022-08-29T00:12:06.494Z,19.08
2022-08-29T00:14:34.438Z,19.14
2022-08-29T00:17:02.176Z,19.18
2022-08-29T00:19:30.024Z,19.22
2022-08-29T00:21:57.675Z,19.28
2022-08-29T00:24:27.341Z,19.19
2022-08-29T00:26:54.969Z,19.11
2022-08-29T00:29:22.589Z,19.14
2022-08-29T00:31:50.332Z,19.10
2022-08-29T00:34:17.963Z,19.08
2022-08-29T00:36:48.951Z,19.14
2022-08-29T00:39:17.000Z,19.11
2022-08-29T00:41:47.935Z,19.11
2022-08-29T00:44:16.719Z,19.11
2022-08-29T00:46:48.556Z,19.13
2022-08-29T00:49:30.940Z,19.09
2022-08-29T00:52:01.177Z,19.08
2022-08-29T00:54:29.025Z,19.08
2022-08-29T00:56:58.958Z,19.06
2022-08-29T00:59:31.554Z,18.99
2022-08-29T01:01:59.851Z,18.97
2022-08-29T01:04:27.693Z,18.92
2022-08-29T01:06:55.653Z,18.93
2022-08-29T01:09:24.237Z,18.99
2022-08-29T01:12:15.416Z,18.79
2022-08-29T01:14:47.848Z,18.54
2022-08-29T01:17:19.417Z,18.45
2022-08-29T01:19:53.931Z,18.35
2022-08-29T01:22:34.834Z,18.35
2022-08-29T01:25:07.580Z,18.37
2022-08-29T01:27:39.553Z,18.36
2022-08-29T01:30:09.027Z,18.38
2022-08-29T01:32:36.676Z,18.38
2022-08-29T01:35:05.515Z,18.35
2022-08-29T01:37:35.282Z,18.37
2022-08-29T01:40:05.367Z,18.39
2022-08-29T01:42:36.611Z,18.33
2022-08-29T01:45:09.963Z,18.30
2022-08-29T01:47:39.138Z,18.29
2022-08-29T01:50:10.095Z,18.31
2022-08-29T01:52:37.781Z,18.25
2022-08-29T01:55:07.598Z,18.17
2022-08-29T01:57:37.316Z,18.09
2022-08-29T02:00:07.723Z,18.19
2022-08-29T02:02:35.511Z,18.06
2022-08-29T02:05:04.942Z,18.16
2022-08-29T02:07:32.567Z,18.08
2022-08-29T02:10:00.268Z,18.00
2022-08-29T02:12:31.587Z,17.98
2022-08-29T02:15:02.006Z,18.16
2022-08-29T02:17:29.923Z,18.16
2022-08-29T02:19:58.049Z,18.14
2022-08-29T02:22:25.990Z,18.10
2022-08-29T02:24:53.557Z,18.15
2022-08-29T02:27:21.175Z,18.12
2022-08-29T02:29:50.593Z,18.12
2022-08-29T02:32:18.240Z,18.05
2022-08-29T02:34:47.831Z,18.06
2022-08-29T02:37:16.310Z,18.13
2022-08-29T02:39:43.950Z,18.17
2022-08-29T02:42:11.619Z,18.16
2022-08-29T02:44:39.267Z,18.21
2022-08-29T02:47:09.260Z,18.21
2022-08-29T02:49:37.029Z,18.21
2022-08-29T02:52:06.515Z,18.25
2022-08-29T02:54:34.731Z,18.20
2022-08-29T02:57:02.322Z,18.18
2022-08-29T02:59:29.972Z,18.13
2022-08-29T03:01:57.745Z,18.16
2022-08-29T03:04:26.744Z,18.09
2022-08-29T03:06:54.525Z,18.06
2022-08-29T03:09:22.121Z,18.10
2022-08-29T03:11:52.496Z,17.88
2022-08-29T03:14:20.097Z,17.83
2022-08-29T03:16:47.819Z,17.89
2022-08-29T03:19:15.422Z,17.89
2022-08-29T03:21:45.402Z,17.89
2022-08-29T03:24:13.157Z,17.85
2022-08-29T03:26:40.766Z,17.82
2022-08-29T03:29:08.357Z,17.77
2022-08-29T03:31:36.472Z,17.78
2022-08-29T03:34:04.450Z,17.79
2022-08-29T03:36:32.340Z,17.82
2022-08-29T03:39:01.466Z,17.86
2022-08-29T03:41:30.394Z,17.65
2022-08-29T03:43:58.872Z,17.61
2022-08-29T03:46:29.231Z,17.56
2022-08-29T03:48:59.123Z,17.56
2022-08-29T03:51:29.389Z,17.64
2022-08-29T03:53:57.285Z,17.62
2022-08-29T03:56:26.956Z,17.63
2022-08-29T03:58:55.110Z,17.57
2022-08-29T04:01:24.761Z,17.53
2022-08-29T04:03:52.668Z,17.56
2022-08-29T04:06:20.856Z,17.51
2022-08-29T04:08:48.815Z,17.45
2022-08-29T04:11:18.468Z,17.35
2022-08-29T04:13:48.801Z,17.26
2022-08-29T04:16:19.656Z,17.21
2022-08-29T04:18:47.431Z,17.20
2022-08-29T04:21:15.552Z,17.24
2022-08-29T04:23:43.643Z,17.26
2022-08-29T04:26:35.281Z,17.27
2022-08-29T04:29:03.691Z,17.20
2022-08-29T04:31:31.484Z,17.27
2022-08-29T04:33:59.199Z,17.01
2022-08-29T04:36:28.039Z,16.95
2022-08-29T04:38:56.008Z,16.94
2022-08-29T04:41:23.596Z,17.08
2022-08-29T04:43:51.224Z,17.20
2022-08-29T04:46:24.011Z,17.20
2022-08-29T04:48:52.249Z,17.25
2022-08-29T04:51:19.936Z,17.30
2022-08-29T04:53:48.104Z,17.26
2022-08-29T04:56:16.368Z,17.24
2022-08-29T04:58:45.280Z,17.39
2022-08-29T05:01:14.928Z,17.42
2022-08-29T05:03:45.324Z,17.49
2022-08-29T05:06:15.518Z,17.53
2022-08-29T05:08:45.795Z,17.49
2022-08-29T05:11:15.658Z,17.47
2022-08-29T05:13:52.029Z,17.58
2022-08-29T05:16:19.818Z,17.67
2022-08-29T05:18:48.910Z,17.59
2022-08-29T05:21:25.927Z,17.62
2022-08-29T05:23:54.218Z,17.75
2022-08-29T05:26:22.065Z,17.77
2022-08-29T05:28:49.714Z,17.69
2022-08-29T05:31:17.421Z,17.70
2022-08-29T05:33:45.180Z,17.62
2022-08-29T05:36:14.189Z,17.61
2022-08-29T05:38:42.135Z,17.58
2022-08-29T05:41:09.724Z,17.61
2022-08-29T05:43:37.374Z,17.68
2022-08-29T05:46:07.045Z,17.73
2022-08-29T05:48:35.905Z,17.87
2022-08-29T05:51:04.132Z,17.85
2022-08-29T05:53:34.575Z,17.83
2022-08-29T05:56:02.281Z,17.79
2022-08-29T05:58:29.917Z,17.75
2022-08-29T06:00:57.606Z,17.64
2022-08-29T06:03:25.592Z,17.44
2022-08-29T06:05:53.957Z,17.25
2022-08-29T06:08:22.052Z,17.29
2022-08-29T06:10:51.020Z,17.50
2022-08-29T06:13:19.444Z,17.61
2022-08-29T06:15:47.062Z,17.76
2022-08-29T06:18:14.826Z,17.89
2022-08-29T06:20:42.519Z,18.13
2022-08-29T06:23:10.191Z,18.26
2022-08-29T06:25:40.109Z,18.31
2022-08-29T06:28:09.481Z,18.37
2022-08-29T06:30:37.171Z,18.49
2022-08-29T06:33:04.980Z,18.54
2022-08-29T06:35:32.583Z,18.58
2022-08-29T06:38:00.299Z,18.62
2022-08-29T06:40:28.019Z,18.68
2022-08-29T06:42:55.693Z,18.73
2022-08-29T06:45:24.752Z,18.83
2022-08-29T06:47:52.407Z,18.80
2022-08-29T06:50:20.169Z,18.76
2022-08-29T06:52:49.272Z,18.83
2022-08-29T06:55:17.048Z,18.89
2022-08-29T06:57:51.575Z,18.97
2022-08-29T07:00:22.086Z,19.09
2022-08-29T07:02:53.080Z,19.08
2022-08-29T07:05:21.627Z,19.19
2022-08-29T07:07:49.665Z,19.25
2022-08-29T07:10:22.246Z,19.32
2022-08-29T07:12:51.028Z,19.35
2022-08-29T07:15:19.866Z,19.42
2022-08-29T07:17:47.515Z,19.46
2022-08-29T07:20:17.808Z,19.58
2022-08-29T07:22:51.003Z,19.77
2022-08-29T07:25:20.072Z,19.78
2022-08-29T07:27:48.329Z,19.77
2022-08-29T07:30:21.121Z,19.82
2022-08-29T07:32:48.729Z,19.75
2022-08-29T07:35:29.598Z,19.90
2022-08-29T07:37:59.378Z,19.91
2022-08-29T07:40:27.072Z,19.88
2022-08-29T07:42:54.751Z,19.97
2022-08-29T07:45:22.681Z,20.05
2022-08-29T07:47:50.252Z,20.32
2022-08-29T07:50:19.226Z,20.37
2022-08-29T07:52:47.684Z,20.41
2022-08-29T07:55:15.428Z,20.54
2022-08-29T07:57:43.076Z,20.62
2022-08-29T08:00:12.037Z,20.74
2022-08-29T08:02:42.520Z,20.91
2022-08-29T08:05:10.484Z,21.11
2022-08-29T08:07:40.178Z,21.21
2022-08-29T08:10:09.532Z,21.22
2022-08-29T08:12:37.178Z,21.40
2022-08-29T08:15:05.481Z,21.40
2022-08-29T08:17:33.180Z,21.46
2022-08-29T08:20:00.796Z,21.43
2022-08-29T08:22:28.385Z,21.61
2022-08-29T08:24:57.310Z,21.59
2022-08-29T08:27:24.954Z,21.61
2022-08-29T08:29:52.559Z,21.76
2022-08-29T08:32:23.152Z,21.95
2022-08-29T08:34:59.964Z,22.05
2022-08-29T08:37:27.578Z,22.14
2022-08-29T08:39:58.290Z,22.31
2022-08-29T08:42:33.648Z,22.36
2022-08-29T08:45:08.626Z,22.53
2022-08-29T08:47:40.236Z,22.67
2022-08-29T08:50:16.066Z,22.79
2022-08-29T08:52:47.875Z,22.77
2022-08-29T08:55:24.917Z,22.81
2022-08-29T08:58:00.665Z,22.75
2022-08-29T09:00:36.142Z,22.87
2022-08-29T09:03:13.981Z,23.03
2022-08-29T09:06:00.808Z,23.13
2022-08-29T09:08:42.759Z,23.33
2022-08-29T09:11:19.746Z,23.45
2022-08-29T09:13:56.899Z,23.62
2022-08-29T09:16:27.958Z,23.82
2022-08-29T09:18:59.594Z,24.02
2022-08-29T09:21:43.893Z,24.20
2022-08-29T09:24:18.301Z,24.38
2022-08-29T09:26:47.337Z,24.50
2022-08-29T09:29:20.807Z,24.67
2022-08-29T09:32:07.212Z,24.78
2022-08-29T09:37:29.920Z,25.01
2022-08-29T09:40:01.366Z,25.15
2022-08-29T09:42:36.334Z,25.12
2022-08-29T09:45:16.169Z,25.08
2022-08-29T09:47:44.145Z,24.96
2022-08-29T09:50:21.489Z,25.03
2022-08-29T09:52:53.601Z,25.11
2022-08-29T09:55:25.475Z,25.13
2022-08-29T09:57:57.956Z,25.11
2022-08-29T10:00:29.713Z,25.10
2022-08-29T10:03:00.103Z,25.11
2022-08-29T10:05:35.067Z,25.32
2022-08-29T10:08:04.464Z,25.44
2022-08-29T10:10:36.000Z,25.60
2022-08-29T10:13:11.666Z,25.61
2022-08-29T10:15:51.614Z,25.65
2022-08-29T10:18:29.122Z,25.64
2022-08-29T10:21:07.900Z,25.66
2022-08-29T10:23:47.565Z,25.53
2022-08-29T10:26:28.599Z,25.72
2022-08-29T10:29:09.212Z,25.94
2022-08-29T10:31:41.392Z,26.13
2022-08-29T10:34:22.258Z,26.22
2022-08-29T10:36:56.230Z,26.24
2022-08-29T10:39:34.613Z,26.29
2022-08-29T10:42:09.618Z,26.27
2022-08-29T10:44:51.122Z,26.39
2022-08-29T10:47:32.119Z,26.36
2022-08-29T10:50:21.834Z,26.42
2022-08-29T10:53:03.259Z,26.66
2022-08-29T10:55:42.168Z,26.75
2022-08-29T10:58:18.149Z,26.95
2022-08-29T11:00:52.559Z,27.22
2022-08-29T11:03:29.954Z,27.31
2022-08-29T11:06:02.297Z,27.54
2022-08-29T11:08:34.677Z,27.74
2022-08-29T11:11:02.305Z,27.78
2022-08-29T11:13:36.084Z,28.02
2022-08-29T11:16:13.924Z,28.38
2022-08-29T11:18:46.309Z,28.59
2022-08-29T11:21:25.195Z,28.70
2022-08-29T11:23:55.454Z,28.99
2022-08-29T11:26:39.971Z,29.07
2022-08-29T11:29:18.065Z,29.18
2022-08-29T11:31:54.475Z,29.24
2022-08-29T11:34:32.485Z,29.44
2022-08-29T11:37:28.869Z,29.73
2022-08-29T11:40:08.345Z,30.18
2022-08-29T11:42:55.197Z,30.47
2022-08-29T11:45:35.592Z,30.45
2022-08-29T11:48:21.256Z,30.65
2022-08-29T11:50:50.101Z,31.02
2022-08-29T11:53:33.670Z,31.35
2022-08-29T11:56:27.966Z,31.61
2022-08-29T11:58:57.087Z,31.71
2022-08-29T12:01:56.205Z,31.92
2022-08-29T12:04:53.747Z,32.19
2022-08-29T12:07:24.246Z,32.59
2022-08-29T12:09:58.812Z,32.87
2022-08-29T12:12:45.191Z,33.18
2022-08-29T12:15:54.596Z,33.52
2022-08-29T12:18:36.605Z,33.43
2022-08-29T12:21:34.117Z,33.13
2022-08-29T12:24:02.217Z,33.76
2022-08-29T12:26:43.087Z,34.15
2022-08-29T12:29:19.492Z,34.47
2022-08-29T12:32:28.530Z,34.64
2022-08-29T12:35:22.211Z,34.75
2022-08-29T12:38:03.297Z,35.18
2022-08-29T12:40:46.768Z,35.81
2022-08-29T12:43:26.905Z,35.93
2022-08-29T12:45:56.241Z,36.45
2022-08-29T12:48:26.395Z,36.56
2022-08-29T12:50:54.699Z,36.05
2022-08-29T12:53:26.153Z,36.51
2022-08-29T12:55:56.198Z,37.14
2022-08-29T12:58:41.436Z,37.38
2022-08-29T13:01:20.848Z,37.77
2022-08-29T13:04:00.849Z,38.21
2022-08-29T13:06:29.395Z,39.10
2022-08-29T13:08:59.099Z,39.86
2022-08-29T13:11:29.034Z,40.24
2022-08-29T13:14:09.413Z,40.42
2022-08-29T13:16:37.797Z,40.05
2022-08-29T13:19:11.426Z,40.89
2022-08-29T13:21:39.743Z,41.63
2022-08-29T13:24:14.093Z,42.42
2022-08-29T13:27:01.084Z,42.06
2022-08-29T13:29:36.873Z,42.13
2022-08-29T13:32:12.751Z,42.86
2022-08-29T13:35:00.520Z,43.00
2022-08-29T13:37:31.304Z,42.39
2022-08-29T13:40:32.077Z,44.17
2022-08-29T13:43:01.565Z,44.14
2022-08-29T13:45:29.283Z,44.13
2022-08-29T13:48:12.196Z,44.58
2022-08-29T13:50:40.726Z,43.80
2022-08-29T13:53:08.459Z,43.11
2022-08-29T13:55:37.681Z,44.30
2022-08-29T13:58:05.428Z,45.24
2022-08-29T14:00:35.430Z,46.38
2022-08-29T14:03:06.473Z,46.50
2022-08-29T14:05:35.700Z,47.82
2022-08-29T14:08:04.635Z,47.14
2022-08-29T14:10:32.331Z,47.38
2022-08-29T14:13:01.331Z,47.61
2022-08-29T14:15:29.024Z,48.59
2022-08-29T14:17:56.847Z,47.96
2022-08-29T14:20:24.551Z,47.37
2022-08-29T14:22:52.140Z,47.75
2022-08-29T14:25:21.117Z,48.28
2022-08-29T14:27:49.047Z,48.72
2022-08-29T14:30:21.483Z,47.87
2022-08-29T14:32:49.191Z,48.16
2022-08-29T14:35:26.824Z,49.15
2022-08-29T14:38:00.390Z,49.36
2022-08-29T14:40:28.938Z,49.29
2022-08-29T14:42:57.022Z,47.99
2022-08-29T14:45:26.103Z,48.00
2022-08-29T14:47:53.709Z,47.31
2022-08-29T14:50:22.106Z,47.72
2022-08-29T14:52:50.240Z,47.30
2022-08-29T14:55:18.357Z,48.55
2022-08-29T14:57:46.112Z,48.37
2022-08-29T15:00:17.157Z,49.02
2022-08-29T15:02:46.198Z,48.92
2022-08-29T15:05:14.181Z,49.21
2022-08-29T15:07:41.912Z,48.57
2022-08-29T15:10:11.420Z,49.02
2022-08-29T15:12:39.587Z,48.71
2022-08-29T15:15:08.473Z,48.58
2022-08-29T15:17:36.177Z,48.83
2022-08-29T15:22:54.837Z,50.00
2022-08-29T15:25:24.117Z,49.38
2022-08-29T15:27:51.925Z,49.48
2022-08-29T15:30:21.468Z,49.72
2022-08-29T15:32:49.403Z,48.45
2022-08-29T15:35:18.984Z,48.69
2022-08-29T15:37:46.633Z,48.71
2022-08-29T15:40:14.987Z,47.88
2022-08-29T15:42:42.737Z,47.69
2022-08-29T15:45:11.863Z,48.10
2022-08-29T15:47:40.605Z,48.35
2022-08-29T15:50:14.994Z,48.09
2022-08-29T15:52:43.993Z,46.52
2022-08-29T15:55:12.595Z,46.08
2022-08-29T15:57:52.166Z,45.99
2022-08-29T16:00:29.856Z,47.18
2022-08-29T16:02:59.962Z,47.31
2022-08-29T16:05:27.615Z,47.39
2022-08-29T16:07:56.628Z,46.40
2022-08-29T16:10:24.355Z,46.58
2022-08-29T16:12:51.972Z,47.03
2022-08-29T16:15:19.712Z,47.76
2022-08-29T16:17:47.400Z,47.64
2022-08-29T16:20:15.014Z,47.97
2022-08-29T16:22:43.686Z,47.82
2022-08-29T16:25:13.956Z,46.96
2022-08-29T16:27:41.770Z,47.02
2022-08-29T16:30:10.952Z,46.57
2022-08-29T16:32:39.644Z,47.14
2022-08-29T16:35:08.350Z,47.03
2022-08-29T16:37:36.037Z,47.01
2022-08-29T16:40:05.371Z,47.60
2022-08-29T16:42:34.861Z,47.07
2022-08-29T16:45:02.659Z,46.47
2022-08-29T16:47:31.073Z,46.10
2022-08-29T16:49:59.212Z,46.02
2022-08-29T16:52:26.829Z,45.58
2022-08-29T16:54:54.498Z,45.32
2022-08-29T16:57:22.590Z,45.21
2022-08-29T16:59:51.560Z,44.44
2022-08-29T17:02:19.199Z,44.01
2022-08-29T17:04:48.803Z,43.67
2022-08-29T17:07:16.538Z,43.02
2022-08-29T17:09:43.108Z,42.70
2022-08-29T17:12:09.909Z,42.10
2022-08-29T17:14:36.515Z,41.62
2022-08-29T17:17:05.694Z,41.08
2022-08-29T17:19:34.032Z,40.59
2022-08-29T17:22:01.850Z,40.42
2022-08-29T17:24:29.447Z,39.95
2022-08-29T17:26:57.457Z,39.51
2022-08-29T17:29:25.132Z,39.59
2022-08-29T17:31:52.721Z,38.99
2022-08-29T17:34:21.730Z,38.54
2022-08-29T17:36:49.586Z,37.72
2022-08-29T17:39:17.219Z,37.23
2022-08-29T17:41:50.323Z,36.92
2022-08-29T17:44:18.532Z,36.48
2022-08-29T17:46:46.217Z,35.61
2022-08-29T17:49:13.816Z,35.04
2022-08-29T17:51:43.543Z,34.46
2022-08-29T17:54:22.377Z,33.72
2022-08-29T17:56:52.483Z,33.12
2022-08-29T17:59:21.355Z,32.60
2022-08-29T18:01:49.095Z,32.14
2022-08-29T18:04:16.869Z,31.59
2022-08-29T18:06:47.037Z,31.06
2022-08-29T18:09:14.936Z,30.66
2022-08-29T18:11:44.743Z,30.25
2022-08-29T18:14:12.933Z,29.87
2022-08-29T18:16:40.728Z,29.54
2022-08-29T18:19:08.764Z,29.17
2022-08-29T18:21:36.892Z,28.89
2022-08-29T18:24:06.490Z,28.53
2022-08-29T18:26:34.826Z,28.25
2022-08-29T18:29:02.489Z,27.98
2022-08-29T18:31:30.174Z,27.67
2022-08-29T18:34:00.475Z,27.47
2022-08-29T18:36:29.130Z,27.34
2022-08-29T18:38:56.830Z,27.11
2022-08-29T18:41:25.959Z,26.91
2022-08-29T18:43:53.605Z,26.73
2022-08-29T18:46:21.790Z,26.62
2022-08-29T18:48:49.439Z,26.45
2022-08-29T18:51:17.156Z,26.33
2022-08-29T18:53:44.796Z,26.19
2022-08-29T18:56:13.333Z,26.10
2022-08-29T18:58:44.193Z,26.04
2022-08-29T19:01:14.009Z,26.03
2022-08-29T19:03:41.940Z,25.99
2022-08-29T19:06:10.161Z,25.93
2022-08-29T19:08:39.365Z,25.84
2022-08-29T19:11:08.615Z,25.74
2022-08-29T19:13:36.347Z,25.62
2022-08-29T19:16:09.482Z,25.48
2022-08-29T19:18:37.842Z,25.34
2022-08-29T19:21:06.359Z,25.17
2022-08-29T19:23:37.007Z,25.18
2022-08-29T19:26:08.304Z,25.17
2022-08-29T19:28:36.412Z,25.13
2022-08-29T19:31:06.340Z,25.06
2022-08-29T19:33:35.102Z,24.96
2022-08-29T19:36:05.270Z,24.84
2022-08-29T19:38:33.012Z,24.77
2022-08-29T19:41:01.043Z,24.65
2022-08-29T19:43:31.898Z,24.58
2022-08-29T19:46:01.211Z,24.51
2022-08-29T19:48:30.275Z,24.40
2022-08-29T19:50:57.914Z,24.33
2022-08-29T19:53:26.213Z,24.19
2022-08-29T19:55:55.245Z,24.07
2022-08-29T19:58:31.453Z,23.95
2022-08-29T20:01:01.425Z,23.90
2022-08-29T20:03:31.150Z,23.78
2022-08-29T20:05:59.470Z,23.67
2022-08-29T20:08:27.406Z,23.55
2022-08-29T20:10:57.015Z,23.46
2022-08-29T20:13:24.672Z,23.36
2022-08-29T20:15:53.523Z,23.32
2022-08-29T20:18:22.487Z,23.29
2022-08-29T20:20:51.592Z,23.18
2022-08-29T20:23:19.296Z,23.12
2022-08-29T20:25:47.227Z,23.03
2022-08-29T20:28:15.628Z,22.94
2022-08-29T20:30:46.206Z,22.81
2022-08-29T20:33:18.111Z,22.69
2022-08-29T20:36:03.767Z,22.59
2022-08-29T20:38:33.244Z,22.54
2022-08-29T20:41:01.277Z,22.45
2022-08-29T20:43:29.491Z,22.42
2022-08-29T20:45:59.905Z,22.36
2022-08-29T20:48:31.350Z,22.33
2022-08-29T20:51:00.180Z,22.28
2022-08-29T20:53:32.350Z,22.26
2022-08-29T20:56:02.148Z,22.22
2022-08-29T20:58:30.383Z,22.20
2022-08-29T21:00:58.192Z,22.17
2022-08-29T21:03:43.945Z,22.19
2022-08-29T21:06:11.700Z,22.12
2022-08-29T21:08:40.921Z,22.11
2022-08-29T21:11:10.195Z,22.07
2022-08-29T21:13:43.602Z,22.05
2022-08-29T21:16:12.394Z,22.01
2022-08-29T21:18:40.418Z,21.97
2022-08-29T21:21:11.218Z,21.91
2022-08-29T21:23:39.037Z,21.83
2022-08-29T21:26:06.753Z,21.77
2022-08-29T21:28:37.921Z,21.63
2022-08-29T21:31:09.562Z,21.46
2022-08-29T21:33:37.707Z,21.34
2022-08-29T21:36:08.245Z,21.23
2022-08-29T21:38:35.889Z,21.21
2022-08-29T21:41:04.355Z,21.15
2022-08-29T21:43:32.364Z,21.15
2022-08-29T21:46:01.436Z,21.04
2022-08-29T21:48:29.023Z,21.01
2022-08-29T21:50:57.304Z,21.05
2022-08-29T21:53:24.899Z,21.06
2022-08-29T21:55:52.507Z,21.08
2022-08-29T21:58:20.461Z,21.13
2022-08-29T22:00:49.246Z,21.11
2022-08-29T22:03:18.514Z,21.10
2022-08-29T22:05:46.348Z,21.11
2022-08-29T22:08:16.452Z,21.16
2022-08-29T22:10:44.652Z,21.09
2022-08-29T22:13:12.260Z,21.07
2022-08-29T22:15:57.983Z,20.94
2022-08-29T22:18:27.291Z,20.93
2022-08-29T22:20:55.794Z,20.91
2022-08-29T22:23:24.336Z,20.97
2022-08-29T22:25:52.550Z,20.99
2022-08-29T22:28:20.364Z,21.01
2022-08-29T22:30:48.619Z,21.04
2022-08-29T22:33:16.980Z,20.99
2022-08-29T22:35:46.431Z,20.95
2022-08-29T22:38:14.216Z,20.93
2022-08-29T22:40:44.182Z,20.85
2022-08-29T22:43:12.184Z,20.83
2022-08-29T22:45:41.445Z,20.79
2022-08-29T22:48:09.100Z,20.80
2022-08-29T22:50:37.011Z,20.83
2022-08-29T22:53:06.195Z,20.72
2022-08-29T22:55:34.099Z,20.61
2022-08-29T22:58:01.693Z,20.55
2022-08-29T23:00:29.594Z,20.54
2022-08-29T23:02:57.260Z,20.50
2022-08-29T23:05:25.136Z,20.47
2022-08-29T23:07:53.031Z,20.40
2022-08-29T23:10:22.249Z,20.37
2022-08-29T23:12:50.577Z,20.34
2022-08-29T23:15:19.383Z,20.21
2022-08-29T23:17:47.562Z,20.13
2022-08-29T23:20:16.816Z,20.14
2022-08-29T23:22:46.952Z,20.14
2022-08-29T23:25:16.701Z,20.10
2022-08-29T23:27:45.670Z,20.11
2022-08-29T23:30:15.237Z,20.15
2022-08-29T23:32:43.018Z,20.12
2022-08-29T23:35:11.156Z,20.08
2022-08-29T23:37:38.780Z,20.07
2022-08-29T23:40:07.497Z,20.06
2022-08-29T23:42:35.125Z,19.99
2022-08-29T23:45:05.313Z,19.94
2022-08-29T23:47:32.923Z,19.84
2022-08-29T23:50:00.529Z,19.73
2022-08-29T23:52:28.158Z,19.69
2022-08-29T23:54:55.756Z,19.71
2022-08-29T23:57:23.357Z,19.71
